Bringhurst, Indiana
Current Conditions -  °F | °C
As of 5:15 PM on Sunday 25 Jan 2015 (Local Time) from KGGP Reporting Station
Light Snow Light Snow  
Wind Chill: -9°   Ceiling: 700
Heat Index: -3°   Visibility: 1.2mi
Dew Point: -3°   Wind: 12mph
Humidity: 100%   Direction: 50°NE
Pressure: 29.78"   Gusts: NA
Location:  40.53°N, 86.52°W
Report Text: KGGP 252215Z AUTO 05010KT 1 1/4SM -SN OVC007 M03/M03 A2978 RMK AO2
Loading
Personal Weather Stations






























Interactive Weather Map New forecast layout! Learn more

10-Day Weather Forecast

Advertisements
Track Severe Weather on mobile